createdAt,value
2022-07-31T00:00:52.664Z,2.15
2022-07-31T00:03:10.833Z,2.60
2022-07-31T00:05:28.757Z,2.28
2022-07-31T00:07:46.549Z,2.33
2022-07-31T00:10:05.293Z,2.55
2022-07-31T00:12:23.300Z,2.60
2022-07-31T00:14:41.151Z,2.92
2022-07-31T00:16:58.978Z,2.60
2022-07-31T00:19:17.569Z,2.47
2022-07-31T00:21:35.391Z,2.85
2022-07-31T00:23:53.360Z,2.67
2022-07-31T00:26:11.178Z,2.63
2022-07-31T00:28:29.420Z,2.83
2022-07-31T00:30:48.271Z,2.95
2022-07-31T00:33:06.930Z,2.80
2022-07-31T00:35:25.436Z,2.85
2022-07-31T00:37:44.543Z,2.60
2022-07-31T00:40:02.300Z,2.80
2022-07-31T00:42:21.479Z,2.60
2022-07-31T00:44:39.246Z,2.40
2022-07-31T00:46:56.993Z,2.55
2022-07-31T00:49:14.902Z,2.50
2022-07-31T00:51:32.777Z,2.63
2022-07-31T00:53:50.575Z,2.80
2022-07-31T00:56:08.442Z,2.60
2022-07-31T00:58:26.419Z,2.60
2022-07-31T01:00:44.363Z,2.92
2022-07-31T01:03:02.194Z,2.90
2022-07-31T01:05:20.002Z,2.80
2022-07-31T01:07:38.519Z,3.72
2022-07-31T01:09:57.018Z,3.15
2022-07-31T01:12:28.213Z,3.63
2022-07-31T01:15:06.084Z,2.90
2022-07-31T01:17:24.336Z,2.80
2022-07-31T01:19:45.524Z,3.28
2022-07-31T01:22:33.138Z,3.15
2022-07-31T01:24:59.253Z,2.95
2022-07-31T01:27:51.710Z,3.20
2022-07-31T01:30:09.851Z,3.10
2022-07-31T01:32:35.524Z,3.55
2022-07-31T01:34:54.951Z,3.22
2022-07-31T01:37:12.691Z,3.38
2022-07-31T01:39:34.224Z,2.75
2022-07-31T01:41:54.167Z,2.87
2022-07-31T01:44:13.789Z,3.20
2022-07-31T01:46:37.404Z,3.13
2022-07-31T01:49:02.341Z,2.75
2022-07-31T01:51:22.091Z,2.83
2022-07-31T01:53:41.550Z,2.78
2022-07-31T01:56:03.648Z,2.67
2022-07-31T01:58:28.599Z,3.15
2022-07-31T02:00:53.552Z,2.92
2022-07-31T02:03:12.578Z,3.13
2022-07-31T02:05:32.759Z,2.80
2022-07-31T02:07:51.129Z,2.97
2022-07-31T02:10:18.669Z,3.00
2022-07-31T02:12:38.158Z,3.10
2022-07-31T02:14:56.427Z,3.03
2022-07-31T02:17:14.909Z,3.08
2022-07-31T02:20:10.701Z,3.72
2022-07-31T02:22:29.658Z,3.42
2022-07-31T02:24:47.508Z,3.30
2022-07-31T02:27:05.821Z,3.33
2022-07-31T02:29:44.594Z,3.30
2022-07-31T02:32:03.834Z,3.30
2022-07-31T02:34:23.632Z,3.33
2022-07-31T02:36:48.315Z,3.10
2022-07-31T02:39:06.405Z,3.45
2022-07-31T02:41:25.158Z,3.30
2022-07-31T02:43:43.713Z,2.90
2022-07-31T02:46:12.463Z,3.15
2022-07-31T02:48:30.781Z,3.47
2022-07-31T02:50:53.110Z,3.22
2022-07-31T02:53:11.194Z,2.97
2022-07-31T02:55:29.192Z,3.60
2022-07-31T02:57:48.269Z,3.28
2022-07-31T03:00:27.249Z,4.07
2022-07-31T03:02:46.104Z,3.53
2022-07-31T03:05:04.105Z,3.30
2022-07-31T03:07:22.054Z,3.47
2022-07-31T03:09:39.819Z,3.45
2022-07-31T03:12:16.178Z,3.25
2022-07-31T03:14:34.855Z,3.83
2022-07-31T03:16:54.265Z,3.55
2022-07-31T03:19:13.248Z,3.80
2022-07-31T03:21:31.456Z,3.22
2022-07-31T03:23:50.470Z,4.13
2022-07-31T03:26:11.971Z,3.70
2022-07-31T03:28:30.122Z,3.63
2022-07-31T03:30:56.642Z,3.92
2022-07-31T03:33:17.309Z,3.45
2022-07-31T03:35:39.044Z,3.88
2022-07-31T03:38:03.245Z,3.47
2022-07-31T03:40:42.932Z,3.42
2022-07-31T03:43:01.878Z,3.60
2022-07-31T03:45:21.774Z,3.58
2022-07-31T03:47:39.767Z,3.90
2022-07-31T03:49:58.472Z,3.47
2022-07-31T03:52:16.426Z,3.45
2022-07-31T03:54:34.334Z,3.35
2022-07-31T03:57:09.209Z,3.67
2022-07-31T03:59:32.426Z,3.38
2022-07-31T04:01:56.674Z,3.67
2022-07-31T04:04:29.624Z,3.58
2022-07-31T04:06:50.295Z,3.78
2022-07-31T04:09:15.443Z,3.58
2022-07-31T04:11:38.102Z,3.50
2022-07-31T04:13:56.304Z,3.50
2022-07-31T04:16:14.166Z,3.25
2022-07-31T04:18:32.641Z,3.78
2022-07-31T04:20:50.469Z,3.95
2022-07-31T04:23:08.391Z,3.65
2022-07-31T04:25:45.766Z,3.38
2022-07-31T04:28:21.085Z,4.20
2022-07-31T04:30:39.734Z,3.20
2022-07-31T04:32:59.375Z,3.60
2022-07-31T04:35:17.288Z,4.15
2022-07-31T04:37:35.316Z,3.35
2022-07-31T04:39:54.194Z,3.47
2022-07-31T04:42:12.681Z,3.90
2022-07-31T04:44:31.442Z,4.38
2022-07-31T04:46:50.227Z,3.70
2022-07-31T04:49:08.157Z,3.65
2022-07-31T04:51:26.607Z,3.75
2022-07-31T04:53:44.734Z,4.03
2022-07-31T04:56:21.103Z,3.70
2022-07-31T04:58:38.881Z,4.18
2022-07-31T05:00:56.723Z,4.00
2022-07-31T05:03:14.504Z,4.53
2022-07-31T05:05:32.301Z,3.63
2022-07-31T05:07:50.132Z,3.75
2022-07-31T05:10:30.851Z,3.60
2022-07-31T05:12:48.888Z,3.60
2022-07-31T05:15:08.023Z,3.83
2022-07-31T05:17:25.806Z,3.95
2022-07-31T05:20:01.034Z,3.85
2022-07-31T05:22:44.987Z,3.63
2022-07-31T05:25:25.790Z,3.72
2022-07-31T05:27:43.610Z,4.00
2022-07-31T05:30:01.541Z,4.20
2022-07-31T05:32:19.310Z,4.03
2022-07-31T05:34:40.388Z,3.90
2022-07-31T05:37:02.400Z,3.47
2022-07-31T05:39:22.296Z,3.90
2022-07-31T05:41:58.675Z,4.35
2022-07-31T05:44:33.621Z,4.07
2022-07-31T05:49:09.029Z,4.43
2022-07-31T05:51:27.413Z,4.50
2022-07-31T05:53:45.802Z,4.63
2022-07-31T05:56:22.481Z,4.13
2022-07-31T05:58:42.720Z,4.50
2022-07-31T06:01:07.236Z,4.32
2022-07-31T06:03:29.742Z,4.20
2022-07-31T06:05:53.502Z,4.50
2022-07-31T06:08:12.368Z,4.72
2022-07-31T06:10:34.323Z,4.07
2022-07-31T06:12:52.062Z,4.10
2022-07-31T06:15:10.092Z,4.25
2022-07-31T06:17:28.991Z,5.47
2022-07-31T06:20:11.180Z,4.75
2022-07-31T06:22:29.042Z,4.72
2022-07-31T06:24:46.822Z,4.18
2022-07-31T06:27:04.810Z,4.43
2022-07-31T06:29:42.115Z,4.18
2022-07-31T06:32:02.944Z,4.40
2022-07-31T06:34:21.214Z,4.40
2022-07-31T06:36:39.572Z,4.90
2022-07-31T06:38:59.916Z,4.47
2022-07-31T06:41:36.223Z,4.10
2022-07-31T06:44:14.661Z,4.60
2022-07-31T06:47:01.518Z,4.10
2022-07-31T06:49:44.537Z,4.00
2022-07-31T06:52:05.562Z,4.63
2022-07-31T06:54:27.137Z,4.30
2022-07-31T06:56:46.017Z,4.57
2022-07-31T06:59:04.050Z,4.75
2022-07-31T07:01:22.877Z,4.68
2022-07-31T07:03:41.324Z,4.70
2022-07-31T07:05:59.299Z,4.20
2022-07-31T07:08:17.328Z,4.45
2022-07-31T07:10:37.259Z,4.75
2022-07-31T07:13:09.995Z,4.15
2022-07-31T07:15:27.853Z,4.60
2022-07-31T07:17:45.686Z,4.20
2022-07-31T07:20:08.506Z,5.03
2022-07-31T07:22:32.026Z,4.18
2022-07-31T07:24:52.936Z,4.38
2022-07-31T07:27:14.113Z,4.40
2022-07-31T07:29:32.391Z,4.97
2022-07-31T07:31:50.169Z,3.95
2022-07-31T07:34:09.977Z,4.63
2022-07-31T07:36:28.270Z,4.35
2022-07-31T07:38:48.991Z,4.25
2022-07-31T07:41:07.680Z,3.70
2022-07-31T07:43:25.537Z,3.80
2022-07-31T07:45:43.686Z,3.42
2022-07-31T07:48:06.541Z,3.28
2022-07-31T07:50:45.159Z,3.47
2022-07-31T07:53:23.171Z,3.40
2022-07-31T07:56:01.486Z,3.17
2022-07-31T07:58:51.661Z,3.58
2022-07-31T08:01:48.550Z,3.75
2022-07-31T08:04:11.422Z,3.55
2022-07-31T08:06:29.217Z,3.42
2022-07-31T08:08:47.073Z,3.33
2022-07-31T08:11:28.321Z,3.30
2022-07-31T08:13:55.888Z,3.50
2022-07-31T08:16:32.706Z,2.58
2022-07-31T08:18:52.953Z,2.88
2022-07-31T08:21:10.862Z,3.30
2022-07-31T08:23:28.770Z,3.42
2022-07-31T08:25:46.971Z,2.88
2022-07-31T08:28:05.599Z,3.65
2022-07-31T08:30:24.861Z,3.42
2022-07-31T08:32:48.775Z,2.83
2022-07-31T08:35:21.939Z,3.33
2022-07-31T08:37:52.092Z,3.00
2022-07-31T08:40:21.659Z,2.58
2022-07-31T08:42:40.258Z,2.92
2022-07-31T08:44:58.070Z,3.00
2022-07-31T08:47:20.278Z,2.83
2022-07-31T08:49:43.292Z,2.83
2022-07-31T08:52:02.761Z,3.45
2022-07-31T08:54:42.924Z,2.58
2022-07-31T08:57:00.890Z,2.90
2022-07-31T08:59:19.796Z,3.00
2022-07-31T09:01:38.879Z,2.50
2022-07-31T09:03:57.477Z,3.10
2022-07-31T09:06:16.308Z,2.97
2022-07-31T09:08:39.519Z,2.90
2022-07-31T09:11:06.156Z,2.90
2022-07-31T09:13:28.291Z,3.10
2022-07-31T09:15:46.681Z,3.30
2022-07-31T09:18:05.207Z,2.72
2022-07-31T09:20:27.369Z,3.28
2022-07-31T09:22:46.345Z,2.80
2022-07-31T09:25:20.850Z,2.53
2022-07-31T09:27:39.019Z,2.70
2022-07-31T09:29:57.438Z,2.60
2022-07-31T09:32:32.661Z,2.92
2022-07-31T09:35:07.350Z,3.00
2022-07-31T09:37:26.851Z,2.80
2022-07-31T09:40:03.729Z,2.60
2022-07-31T09:42:55.285Z,2.60
2022-07-31T09:45:19.500Z,3.13
2022-07-31T09:47:37.788Z,2.58
2022-07-31T09:50:09.839Z,2.65
2022-07-31T09:52:31.798Z,2.33
2022-07-31T09:54:52.450Z,2.42
2022-07-31T09:57:19.824Z,2.70
2022-07-31T09:59:45.188Z,2.65
2022-07-31T10:02:03.617Z,2.28
2022-07-31T10:04:22.896Z,2.60
2022-07-31T10:06:42.160Z,2.35
2022-07-31T10:09:01.044Z,2.58
2022-07-31T10:11:39.251Z,2.60
2022-07-31T10:14:04.011Z,2.80
2022-07-31T10:16:22.834Z,2.47
2022-07-31T10:19:03.905Z,2.60
2022-07-31T10:21:42.597Z,2.22
2022-07-31T10:24:13.056Z,2.30
2022-07-31T10:26:58.691Z,2.30
2022-07-31T10:29:10.411Z,2.28
2022-07-31T10:31:36.112Z,2.20
2022-07-31T10:33:55.725Z,2.30
2022-07-31T10:36:36.765Z,1.92
2022-07-31T10:39:24.941Z,2.20
2022-07-31T10:41:58.727Z,2.25
2022-07-31T10:44:24.103Z,1.80
2022-07-31T10:47:00.101Z,1.95
2022-07-31T10:49:50.780Z,1.90
2022-07-31T10:52:37.292Z,2.03
2022-07-31T10:55:15.367Z,2.22
2022-07-31T10:57:57.315Z,2.10
2022-07-31T11:00:30.358Z,2.10
2022-07-31T11:03:14.139Z,1.80
2022-07-31T11:06:00.867Z,1.95
2022-07-31T11:08:46.488Z,1.80
2022-07-31T11:11:33.937Z,1.75
2022-07-31T11:14:11.666Z,1.90
2022-07-31T11:19:44.971Z,1.50
2022-07-31T11:22:30.763Z,1.67
2022-07-31T11:24:55.033Z,1.98
2022-07-31T11:27:12.864Z,1.77
2022-07-31T11:30:00.318Z,2.10
2022-07-31T11:32:15.135Z,2.10
2022-07-31T11:34:43.903Z,1.80
2022-07-31T11:37:01.688Z,1.67
2022-07-31T11:39:36.266Z,1.70
2022-07-31T11:41:54.485Z,1.52
2022-07-31T11:44:12.412Z,1.60
2022-07-31T11:46:33.387Z,1.63
2022-07-31T11:48:51.643Z,1.65
2022-07-31T11:51:09.626Z,1.60
2022-07-31T11:53:27.669Z,1.63
2022-07-31T11:55:45.373Z,1.52
2022-07-31T11:58:03.172Z,1.75
2022-07-31T12:00:26.442Z,1.55
2022-07-31T12:02:47.663Z,1.70
2022-07-31T12:05:05.912Z,1.63
2022-07-31T12:07:24.044Z,1.65
2022-07-31T12:10:02.405Z,1.40
2022-07-31T12:12:20.416Z,1.60
2022-07-31T12:14:39.264Z,1.65
2022-07-31T12:16:57.070Z,1.70
2022-07-31T12:19:15.017Z,1.40
2022-07-31T12:21:34.722Z,1.50
2022-07-31T12:23:53.412Z,1.58
2022-07-31T12:26:22.666Z,1.60
2022-07-31T12:28:41.893Z,1.52
2022-07-31T12:31:00.460Z,1.67
2022-07-31T12:33:18.266Z,1.50
2022-07-31T12:35:54.880Z,1.63
2022-07-31T12:38:38.333Z,1.65
2022-07-31T12:41:05.820Z,1.70
2022-07-31T12:43:24.807Z,1.60
2022-07-31T12:45:42.593Z,1.42
2022-07-31T12:48:00.971Z,1.50
2022-07-31T12:50:18.742Z,1.48
2022-07-31T12:52:37.579Z,1.50
2022-07-31T12:54:55.340Z,1.67
2022-07-31T12:57:13.485Z,1.35
2022-07-31T12:59:31.231Z,1.52
2022-07-31T13:01:49.045Z,1.77
2022-07-31T13:04:07.923Z,1.60
2022-07-31T13:06:37.594Z,1.50
2022-07-31T13:08:55.831Z,1.48
2022-07-31T13:11:13.560Z,1.65
2022-07-31T13:13:31.367Z,1.40
2022-07-31T13:15:49.109Z,1.70
2022-07-31T13:18:06.907Z,1.35
2022-07-31T13:20:25.133Z,1.45
2022-07-31T13:22:42.906Z,1.50
2022-07-31T13:25:00.816Z,1.30
2022-07-31T13:27:18.931Z,1.67
2022-07-31T13:29:36.713Z,1.45
2022-07-31T13:31:54.382Z,1.80
2022-07-31T13:34:12.384Z,1.45
2022-07-31T13:36:35.519Z,1.75
2022-07-31T13:38:53.887Z,1.83
2022-07-31T13:41:30.261Z,1.73
2022-07-31T13:44:00.351Z,1.80
2022-07-31T13:46:19.127Z,2.00
2022-07-31T13:48:36.920Z,1.63
2022-07-31T13:50:54.710Z,1.35
2022-07-31T13:53:12.578Z,1.75
2022-07-31T13:55:30.283Z,1.70
2022-07-31T13:57:48.155Z,1.90
2022-07-31T14:00:06.329Z,1.58
2022-07-31T14:02:24.150Z,1.60
2022-07-31T14:04:42.023Z,1.63
2022-07-31T14:07:03.383Z,2.13
2022-07-31T14:09:22.297Z,1.67
2022-07-31T14:11:40.051Z,1.50
2022-07-31T14:13:58.005Z,1.58
2022-07-31T14:16:15.765Z,1.33
2022-07-31T14:18:33.701Z,1.67
2022-07-31T14:20:52.095Z,1.65
2022-07-31T14:23:10.176Z,1.67
2022-07-31T14:25:28.336Z,1.90
2022-07-31T14:27:46.405Z,1.42
2022-07-31T14:30:04.223Z,1.73
2022-07-31T14:32:22.795Z,1.80
2022-07-31T14:34:40.568Z,1.65
2022-07-31T14:36:58.350Z,1.70
2022-07-31T14:39:16.152Z,1.48
2022-07-31T14:41:33.897Z,2.00
2022-07-31T14:43:51.700Z,1.80
2022-07-31T14:46:09.509Z,1.60
2022-07-31T14:48:27.471Z,2.30
2022-07-31T14:50:45.264Z,2.00
2022-07-31T14:53:03.031Z,1.80
2022-07-31T14:55:21.071Z,1.80
2022-07-31T14:57:39.238Z,2.05
2022-07-31T14:59:56.992Z,2.00
2022-07-31T15:02:17.522Z,2.30
2022-07-31T15:04:39.467Z,1.80
2022-07-31T15:07:13.256Z,1.77
2022-07-31T15:09:35.062Z,1.70
2022-07-31T15:11:59.935Z,2.05
2022-07-31T15:14:19.567Z,2.10
2022-07-31T15:16:38.057Z,2.15
2022-07-31T15:18:55.983Z,1.90
2022-07-31T15:21:16.454Z,2.40
2022-07-31T15:23:36.084Z,2.10
2022-07-31T15:25:57.524Z,2.13
2022-07-31T15:28:15.726Z,2.00
2022-07-31T15:30:33.994Z,2.25
2022-07-31T15:32:52.838Z,2.38
2022-07-31T15:35:12.647Z,2.33
2022-07-31T15:37:30.468Z,2.40
2022-07-31T15:40:02.145Z,2.03
2022-07-31T15:42:23.231Z,2.40
2022-07-31T15:44:41.036Z,3.22
2022-07-31T15:46:58.803Z,2.00
2022-07-31T15:49:16.585Z,2.00
2022-07-31T15:51:34.411Z,2.00
2022-07-31T15:53:52.198Z,2.20
2022-07-31T15:56:12.563Z,2.35
2022-07-31T15:58:30.300Z,2.20
2022-07-31T16:00:48.093Z,2.28
2022-07-31T16:03:06.186Z,2.30
2022-07-31T16:05:36.740Z,2.10
2022-07-31T16:08:29.336Z,2.00
2022-07-31T16:10:34.517Z,1.80
2022-07-31T16:12:52.246Z,2.05
2022-07-31T16:15:11.415Z,2.20
2022-07-31T16:17:37.919Z,2.00
2022-07-31T16:19:57.429Z,2.05
2022-07-31T16:22:15.178Z,2.20
2022-07-31T16:24:32.961Z,2.55
2022-07-31T16:26:50.673Z,1.83
2022-07-31T16:29:17.096Z,1.80
2022-07-31T16:31:46.215Z,2.10
2022-07-31T16:34:04.069Z,1.92
2022-07-31T16:36:22.002Z,1.75
2022-07-31T16:38:39.911Z,2.20
2022-07-31T16:40:57.734Z,1.92
2022-07-31T16:43:49.990Z,2.10
2022-07-31T16:45:54.133Z,2.08
2022-07-31T16:48:11.941Z,2.72
2022-07-31T16:50:29.788Z,2.13
2022-07-31T16:52:51.313Z,2.00
2022-07-31T16:55:12.102Z,1.92
2022-07-31T16:57:30.135Z,2.00
2022-07-31T16:59:57.310Z,1.90
2022-07-31T17:02:16.598Z,2.20
2022-07-31T17:04:34.530Z,2.30
2022-07-31T17:06:52.265Z,2.20
2022-07-31T17:09:16.688Z,2.30
2022-07-31T17:11:35.800Z,2.00
2022-07-31T17:13:53.569Z,2.10
2022-07-31T17:16:11.281Z,2.10
2022-07-31T17:18:29.029Z,2.40
2022-07-31T17:20:47.217Z,1.95
2022-07-31T17:23:08.601Z,2.15
2022-07-31T17:25:26.542Z,2.30
2022-07-31T17:27:44.453Z,2.13
2022-07-31T17:30:03.545Z,2.10
2022-07-31T17:32:21.432Z,1.70
2022-07-31T17:34:39.705Z,2.22
2022-07-31T17:36:57.458Z,1.90
2022-07-31T17:39:15.246Z,1.80
2022-07-31T17:41:34.898Z,2.00
2022-07-31T17:43:53.295Z,2.03
2022-07-31T17:46:17.564Z,2.00
2022-07-31T17:48:46.209Z,2.25
2022-07-31T17:51:04.563Z,2.00
2022-07-31T17:53:22.379Z,2.17
2022-07-31T17:55:40.172Z,1.88
2022-07-31T17:57:57.873Z,2.20
2022-07-31T18:00:15.761Z,2.15
2022-07-31T18:02:33.696Z,2.15
2022-07-31T18:04:51.532Z,2.10
2022-07-31T18:07:09.745Z,2.00
2022-07-31T18:09:27.802Z,2.30
2022-07-31T18:11:45.569Z,2.60
2022-07-31T18:14:05.106Z,2.45
2022-07-31T18:16:23.860Z,2.35
2022-07-31T18:18:41.590Z,2.50
2022-07-31T18:20:59.779Z,2.22
2022-07-31T18:23:17.561Z,2.25
2022-07-31T18:25:35.351Z,2.05
2022-07-31T18:27:54.185Z,2.40
2022-07-31T18:30:12.298Z,2.80
2022-07-31T18:32:31.096Z,3.33
2022-07-31T18:34:48.866Z,2.42
2022-07-31T18:37:06.606Z,2.20
2022-07-31T18:39:25.280Z,2.92
2022-07-31T18:41:48.278Z,2.13
2022-07-31T18:44:06.689Z,2.10
2022-07-31T18:46:24.972Z,2.42
2022-07-31T18:48:42.909Z,2.22
2022-07-31T18:51:04.822Z,2.10
2022-07-31T18:53:22.964Z,2.35
2022-07-31T18:55:40.702Z,2.22
2022-07-31T18:57:59.283Z,2.40
2022-07-31T19:00:17.487Z,2.38
2022-07-31T19:02:35.252Z,2.08
2022-07-31T19:04:53.091Z,2.20
2022-07-31T19:07:11.717Z,2.15
2022-07-31T19:09:30.450Z,2.55
2022-07-31T19:11:50.294Z,2.42
2022-07-31T19:14:08.900Z,2.50
2022-07-31T19:16:28.543Z,2.50
2022-07-31T19:18:47.634Z,2.50
2022-07-31T19:21:21.313Z,2.30
2022-07-31T19:23:44.145Z,2.80
2022-07-31T19:26:03.111Z,2.22
2022-07-31T19:28:22.569Z,2.60
2022-07-31T19:33:03.830Z,3.33
2022-07-31T19:35:21.886Z,2.85
2022-07-31T19:37:39.877Z,2.40
2022-07-31T19:39:57.997Z,2.38
2022-07-31T19:42:16.822Z,2.53
2022-07-31T19:44:34.854Z,2.42
2022-07-31T19:46:52.659Z,2.50
2022-07-31T19:49:10.485Z,2.60
2022-07-31T19:51:28.291Z,2.83
2022-07-31T19:53:46.422Z,2.75
2022-07-31T19:56:07.501Z,2.30
2022-07-31T19:58:25.277Z,2.58
2022-07-31T20:00:42.998Z,2.42
2022-07-31T20:03:00.877Z,2.88
2022-07-31T20:05:18.657Z,2.60
2022-07-31T20:07:38.150Z,2.78
2022-07-31T20:09:55.969Z,2.63
2022-07-31T20:12:14.097Z,2.50
2022-07-31T20:14:31.814Z,3.13
2022-07-31T20:16:49.610Z,2.40
2022-07-31T20:19:07.308Z,2.65
2022-07-31T20:21:25.051Z,2.47
2022-07-31T20:23:44.340Z,3.00
2022-07-31T20:26:07.161Z,2.80
2022-07-31T20:28:24.940Z,2.35
2022-07-31T20:30:42.675Z,2.30
2022-07-31T20:33:00.597Z,2.70
2022-07-31T20:35:47.218Z,2.90
2022-07-31T20:37:58.835Z,2.53
2022-07-31T20:40:16.824Z,2.63
2022-07-31T20:42:34.644Z,2.78
2022-07-31T20:44:52.424Z,2.65
2022-07-31T20:47:10.177Z,2.70
2022-07-31T20:49:34.962Z,2.97
2022-07-31T20:51:53.721Z,3.40
2022-07-31T20:54:11.947Z,3.40
2022-07-31T20:56:29.888Z,3.30
2022-07-31T20:58:51.667Z,3.53
2022-07-31T21:01:10.246Z,2.97
2022-07-31T21:03:28.978Z,2.92
2022-07-31T21:05:47.476Z,3.05
2022-07-31T21:08:05.300Z,3.58
2022-07-31T21:10:28.188Z,3.30
2022-07-31T21:12:47.201Z,3.03
2022-07-31T21:15:05.617Z,3.53
2022-07-31T21:17:43.368Z,3.97
2022-07-31T21:20:06.863Z,3.67
2022-07-31T21:22:25.331Z,3.38
2022-07-31T21:24:43.313Z,3.03
2022-07-31T21:27:01.037Z,3.33
2022-07-31T21:29:18.975Z,3.00
2022-07-31T21:31:36.841Z,3.72
2022-07-31T21:34:07.014Z,3.28
2022-07-31T21:36:24.840Z,3.25
2022-07-31T21:38:43.540Z,3.22
2022-07-31T21:41:01.649Z,2.75
2022-07-31T21:43:22.589Z,2.90
2022-07-31T21:45:51.395Z,2.90
2022-07-31T21:48:15.490Z,2.97
2022-07-31T21:50:33.399Z,2.97
2022-07-31T21:52:51.213Z,2.97
2022-07-31T21:55:09.226Z,2.90
2022-07-31T21:57:28.990Z,3.05
2022-07-31T22:00:13.324Z,2.83
2022-07-31T22:02:32.843Z,2.70
2022-07-31T22:05:09.406Z,3.08
2022-07-31T22:07:36.244Z,3.08
2022-07-31T22:09:53.990Z,3.10
2022-07-31T22:12:12.047Z,2.95
2022-07-31T22:14:29.931Z,3.10
2022-07-31T22:16:47.793Z,3.03
2022-07-31T22:19:06.443Z,2.80
2022-07-31T22:21:24.405Z,3.22
2022-07-31T22:23:42.351Z,2.97
2022-07-31T22:26:00.477Z,3.00
2022-07-31T22:28:19.886Z,2.95
2022-07-31T22:30:37.760Z,3.40
2022-07-31T22:32:56.711Z,3.08
2022-07-31T22:35:14.604Z,3.45
2022-07-31T22:37:32.556Z,2.95
2022-07-31T22:39:51.366Z,2.80
2022-07-31T22:42:09.516Z,2.83
2022-07-31T22:44:27.373Z,3.22
2022-07-31T22:46:45.307Z,2.90
2022-07-31T22:49:03.716Z,2.72
2022-07-31T22:51:21.650Z,2.80
2022-07-31T22:53:39.438Z,2.92
2022-07-31T22:55:57.278Z,2.78
2022-07-31T22:58:15.186Z,2.83
2022-07-31T23:00:33.049Z,3.20
2022-07-31T23:02:50.909Z,2.63
2022-07-31T23:05:09.371Z,2.90
2022-07-31T23:07:27.169Z,2.90
2022-07-31T23:09:44.987Z,3.20
2022-07-31T23:12:03.231Z,3.20
2022-07-31T23:14:21.598Z,3.00
2022-07-31T23:16:39.446Z,3.13
2022-07-31T23:18:57.323Z,2.70
2022-07-31T23:21:15.114Z,3.20
2022-07-31T23:23:32.964Z,2.95
2022-07-31T23:25:51.076Z,2.85
2022-07-31T23:28:08.941Z,3.05
2022-07-31T23:30:27.619Z,2.75
2022-07-31T23:32:45.427Z,3.10
2022-07-31T23:35:03.249Z,3.30
2022-07-31T23:37:21.406Z,2.88
2022-07-31T23:39:39.970Z,3.22
2022-07-31T23:42:34.365Z,3.03
2022-07-31T23:44:52.565Z,3.10
2022-07-31T23:47:10.876Z,3.45
2022-07-31T23:49:33.876Z,3.38
2022-07-31T23:51:52.113Z,3.10
2022-07-31T23:54:09.933Z,3.10
2022-07-31T23:56:27.685Z,2.67
2022-07-31T23:58:45.514Z,2.92
